Alexander, New York
Current Conditions -  °F | °C
As of 3:54 AM on Saturday 25 Oct 2014 (Local Time) from KBUF Reporting Station
Overcast Overcast  
Wind Chill: 51°   Ceiling: 5500
Heat Index: 51°   Visibility: 7mi
Dew Point: 47°   Wind: 7mph
Humidity: 86%   Direction: 200°SSW
Pressure: 29.88"   Gusts: NA
Location:  42.9°N, 78.26°W
Report Text: KBUF 250754Z 20006KT 7SM SCT042 OVC055 11/08 A2988 RMK AO2 SLP121 T01060083
Loading
Personal Weather Stations






























Interactive Weather Map
Tropical Storm Tracking
New forecast layout! Learn more

10-Day Weather Forecast

Advertisements
Track Severe Weather on mobile